Garrison, ND (58540)

7:10 PM CDT on August 29, 2014 (GMT -0500)
RIVERDALE, ND | Change Station
CLOSE
Current Station
Personal Weather Station
Location: RIVERDALE, ND
Elevation: 1988 ft
Nearby Weather Stations

Elev 1988 ft 47.50 °N, 101.37 °W | Updated 33 seconds ago

Overcast
Overcast
64.8 °F
Feels Like 64.8 °F
N
1.0
Wind Variable Wind from ENE
Gusts 10.0 mph

Today
High -- | Low -- °F
--% Chance of Precip.
Yesterday
High -- | Low -- °F
Precip. -- in
7:00 AM 8:31 PM
Waxing Crescent, 17% visible
Pressure 29.96 in
Visibility 10.0 miles
Clouds Mostly Cloudy 7000 ft
Dew Point 55 °F
Humidity 71%
Rainfall 0.00 in
Snow Depth Not available.
UV 1 out of 12
Pollen 9.00 out of 12
Air Quality Not available.
Flu Activity Not available.
METAR KHZE 292355Z AUTO 04008KT 10SM BKN070 20/10 A2996 RMK AO2

More Conditions Fewer Conditions

Pressure 29.96 in
Visibility 10.0 miles
Clouds Mostly Cloudy 7000 ft
Dew Point 55 °F
Humidity 71%
Rainfall 0.00 in
Snow Depth Not available.
UV 1 out of 12
Pollen 9.00 out of 12
Air Quality Not available.
Flu Activity Not available.
METAR KHZE 292355Z AUTO 04008KT 10SM BKN070 20/10 A2996 RMK AO2

More Conditions Fewer Conditions

10-Day Weather Forecast

Almanac

Astronomy

Aug. 29, 2014 Rise Set
Actual Time 7:00 AM CDT 8:31 PM CDT
Civil Twilight 6:27 AM CDT 9:03 PM CDT
Nautical Twilight 5:48 AM CDT 9:43 PM CDT
Astronomical Twilight 5:05 AM CDT 10:25 PM CDT
Moon 11:10 AM CDT (8/29) 10:09 PM CDT (8/29)
Length of Visible Light 14h 36m
Length of Day
13h 31m
Tomorrow will be 3m 18s shorter.
Waxing Crescent, 17% of the Moon is Illuminated
Today
Waxing Crescent
Sep 2
First Quarter
Sep 8
Full
Sep 15
Last Quarter
Sep 24
New

Today's Extremes

State Highs State Lows

Community

WunderPhotos

Upload Photos

1,748,382 photos uploaded!

Nearby

Snow Depth

Station Depth Elevation
No new snow has been reported.

Earthquake Activity

City Distance Mag. Time & Date
No recent earthquake activity has been reported nearby.
Minimum magnitude displayed is 2.5.

Coastal Water Temperatures

Place Temperature
No Stations Reporting

Nearby Weather Stations